sensor_id;sensor_type;location;lat;lon;timestamp;pressure;altitude;pressure_sealevel;temperature;humidity
36190;BME280;22232;50.914;13.858;2023-09-19T00:00:44;97124.13;;;15.69;100.00
36190;BME280;22232;50.914;13.858;2023-09-19T00:03:15;97126.03;;;15.69;100.00
36190;BME280;22232;50.914;13.858;2023-09-19T00:05:43;97125.22;;;15.68;100.00
36190;BME280;22232;50.914;13.858;2023-09-19T00:08:12;97129.47;;;15.74;100.00
36190;BME280;22232;50.914;13.858;2023-09-19T00:10:43;97120.38;;;15.70;100.00
36190;BME280;22232;50.914;13.858;2023-09-19T00:13:11;97113.34;;;15.74;100.00
36190;BME280;22232;50.914;13.858;2023-09-19T00:15:44;97122.19;;;15.80;100.00
36190;BME280;22232;50.914;13.858;2023-09-19T00:18:19;97121.31;;;15.85;100.00
36190;BME280;22232;50.914;13.858;2023-09-19T00:20:51;97112.41;;;15.89;100.00
36190;BME280;22232;50.914;13.858;2023-09-19T00:23:20;97106.75;;;15.91;100.00
36190;BME280;22232;50.914;13.858;2023-09-19T00:25:48;97112.88;;;15.96;100.00
36190;BME280;22232;50.914;13.858;2023-09-19T00:28:16;97110.44;;;16.00;100.00
36190;BME280;22232;50.914;13.858;2023-09-19T00:30:46;97106.72;;;15.96;100.00
36190;BME280;22232;50.914;13.858;2023-09-19T00:33:21;97112.88;;;15.96;100.00
36190;BME280;22232;50.914;13.858;2023-09-19T00:35:50;97113.13;;;16.00;100.00
36190;BME280;22232;50.914;13.858;2023-09-19T00:38:18;97108.88;;;15.94;100.00
36190;BME280;22232;50.914;13.858;2023-09-19T00:40:49;97104.06;;;15.91;100.00
36190;BME280;22232;50.914;13.858;2023-09-19T00:43:20;97108.38;;;15.92;100.00
36190;BME280;22232;50.914;13.858;2023-09-19T00:45:50;97107.25;;;15.98;100.00
36190;BME280;22232;50.914;13.858;2023-09-19T00:48:22;97094.78;;;16.07;100.00
36190;BME280;22232;50.914;13.858;2023-09-19T00:50:52;97100.06;;;16.17;100.00
36190;BME280;22232;50.914;13.858;2023-09-19T00:53:23;97102.75;;;16.17;100.00
36190;BME280;22232;50.914;13.858;2023-09-19T00:55:54;97099.50;;;16.20;100.00
36190;BME280;22232;50.914;13.858;2023-09-19T00:58:23;97097.81;;;16.24;100.00
36190;BME280;22232;50.914;13.858;2023-09-19T01:00:51;97098.88;;;16.28;100.00
36190;BME280;22232;50.914;13.858;2023-09-19T01:03:22;97091.50;;;16.39;100.00
36190;BME280;22232;50.914;13.858;2023-09-19T01:05:50;97095.97;;;16.49;100.00
36190;BME280;22232;50.914;13.858;2023-09-19T01:08:19;97097.81;;;16.54;100.00
36190;BME280;22232;50.914;13.858;2023-09-19T01:10:54;97110.91;;;16.60;100.00
36190;BME280;22232;50.914;13.858;2023-09-19T01:16:26;97106.63;;;16.59;100.00
36190;BME280;22232;50.914;13.858;2023-09-19T01:29:34;97103.94;;;16.35;100.00
36190;BME280;22232;50.914;13.858;2023-09-19T01:32:08;97110.09;;;16.36;100.00
36190;BME280;22232;50.914;13.858;2023-09-19T01:35:09;97116.50;;;16.40;100.00
36190;BME280;22232;50.914;13.858;2023-09-19T01:37:40;97117.34;;;16.40;100.00
36190;BME280;22232;50.914;13.858;2023-09-19T01:40:13;97117.84;;;16.42;100.00
36190;BME280;22232;50.914;13.858;2023-09-19T01:43:16;97115.44;;;16.41;100.00
36190;BME280;22232;50.914;13.858;2023-09-19T01:46:09;97119.16;;;16.45;100.00
36190;BME280;22232;50.914;13.858;2023-09-19T01:48:46;97114.66;;;16.40;100.00
36190;BME280;22232;50.914;13.858;2023-09-19T01:54:39;97113.78;;;16.45;100.00
36190;BME280;22232;50.914;13.858;2023-09-19T01:57:32;97120.38;;;16.58;100.00
36190;BME280;22232;50.914;13.858;2023-09-19T02:00:06;97117.09;;;16.61;100.00
36190;BME280;22232;50.914;13.858;2023-09-19T02:02:43;97114.13;;;16.62;100.00
36190;BME280;22232;50.914;13.858;2023-09-19T02:05:12;97119.03;;;16.55;100.00
36190;BME280;22232;50.914;13.858;2023-09-19T02:07:40;97120.09;;;16.59;100.00
36190;BME280;22232;50.914;13.858;2023-09-19T02:10:08;97128.44;;;16.58;100.00
36190;BME280;22232;50.914;13.858;2023-09-19T02:12:37;97127.94;;;16.56;100.00
36190;BME280;22232;50.914;13.858;2023-09-19T02:15:05;97130.84;;;16.59;100.00
36190;BME280;22232;50.914;13.858;2023-09-19T02:17:34;97140.50;;;16.65;100.00
36190;BME280;22232;50.914;13.858;2023-09-19T02:20:02;97142.06;;;16.66;100.00
36190;BME280;22232;50.914;13.858;2023-09-19T02:22:38;97144.44;;;16.73;100.00
36190;BME280;22232;50.914;13.858;2023-09-19T02:25:06;97150.06;;;16.77;100.00
36190;BME280;22232;50.914;13.858;2023-09-19T02:27:36;97151.72;;;16.72;100.00
36190;BME280;22232;50.914;13.858;2023-09-19T02:30:05;97143.69;;;16.67;100.00
36190;BME280;22232;50.914;13.858;2023-09-19T02:32:33;97149.63;;;16.64;100.00
36190;BME280;22232;50.914;13.858;2023-09-19T02:35:04;97146.72;;;16.61;100.00
36190;BME280;22232;50.914;13.858;2023-09-19T02:37:32;97141.09;;;16.57;100.00
36190;BME280;22232;50.914;13.858;2023-09-19T02:40:00;97134.16;;;16.51;100.00
36190;BME280;22232;50.914;13.858;2023-09-19T02:42:28;97136.09;;;16.45;100.00
36190;BME280;22232;50.914;13.858;2023-09-19T02:44:56;97142.81;;;16.48;100.00
36190;BME280;22232;50.914;13.858;2023-09-19T02:47:24;97143.13;;;16.46;100.00
36190;BME280;22232;50.914;13.858;2023-09-19T02:49:52;97139.84;;;16.49;100.00
36190;BME280;22232;50.914;13.858;2023-09-19T02:52:20;97149.34;;;16.42;100.00
36190;BME280;22232;50.914;13.858;2023-09-19T02:54:48;97142.34;;;16.41;100.00
36190;BME280;22232;50.914;13.858;2023-09-19T02:57:15;97145.28;;;16.44;100.00
36190;BME280;22232;50.914;13.858;2023-09-19T02:59:45;97137.81;;;16.36;100.00
36190;BME280;22232;50.914;13.858;2023-09-19T03:02:12;97140.16;;;16.43;100.00
36190;BME280;22232;50.914;13.858;2023-09-19T03:04:40;97145.28;;;16.44;100.00
36190;BME280;22232;50.914;13.858;2023-09-19T03:07:08;97144.25;;;16.40;100.00
36190;BME280;22232;50.914;13.858;2023-09-19T03:09:39;97135.59;;;16.43;100.00
36190;BME280;22232;50.914;13.858;2023-09-19T03:12:06;97138.78;;;16.45;100.00
36190;BME280;22232;50.914;13.858;2023-09-19T03:14:35;97138.88;;;16.40;100.00
36190;BME280;22232;50.914;13.858;2023-09-19T03:17:03;97131.09;;;16.34;100.00
36190;BME280;22232;50.914;13.858;2023-09-19T03:19:35;97146.44;;;16.33;100.00
36190;BME280;22232;50.914;13.858;2023-09-19T03:22:06;97139.19;;;16.34;100.00
36190;BME280;22232;50.914;13.858;2023-09-19T03:24:35;97134.59;;;16.34;100.00
36190;BME280;22232;50.914;13.858;2023-09-19T03:27:05;97141.81;;;16.39;100.00
36190;BME280;22232;50.914;13.858;2023-09-19T03:29:34;97147.78;;;16.36;100.00
36190;BME280;22232;50.914;13.858;2023-09-19T03:32:02;97150.47;;;16.36;100.00
36190;BME280;22232;50.914;13.858;2023-09-19T03:34:31;97153.72;;;16.33;100.00
36190;BME280;22232;50.914;13.858;2023-09-19T03:36:59;97159.34;;;16.36;100.00
36190;BME280;22232;50.914;13.858;2023-09-19T03:39:27;97169.03;;;16.37;100.00
36190;BME280;22232;50.914;13.858;2023-09-19T03:41:55;97171.41;;;16.44;100.00
36190;BME280;22232;50.914;13.858;2023-09-19T03:44:23;97172.47;;;16.43;100.00
36190;BME280;22232;50.914;13.858;2023-09-19T03:46:50;97170.09;;;16.36;100.00
36190;BME280;22232;50.914;13.858;2023-09-19T03:49:18;97169.41;;;16.25;100.00
36190;BME280;22232;50.914;13.858;2023-09-19T03:51:46;97168.03;;;16.28;100.00
36190;BME280;22232;50.914;13.858;2023-09-19T03:54:14;97163.94;;;16.36;100.00
36190;BME280;22232;50.914;13.858;2023-09-19T03:56:42;97165.28;;;16.33;100.00
36190;BME280;22232;50.914;13.858;2023-09-19T03:59:11;97165.84;;;16.30;100.00
36190;BME280;22232;50.914;13.858;2023-09-19T04:01:39;97165.06;;;16.29;100.00
36190;BME280;22232;50.914;13.858;2023-09-19T04:04:08;97175.25;;;16.33;100.00
36190;BME280;22232;50.914;13.858;2023-09-19T04:06:37;97176.94;;;16.23;100.00
36190;BME280;22232;50.914;13.858;2023-09-19T04:09:04;97181.78;;;16.26;100.00
36190;BME280;22232;50.914;13.858;2023-09-19T04:11:34;97178.06;;;16.22;100.00
36190;BME280;22232;50.914;13.858;2023-09-19T04:14:03;97174.84;;;16.15;100.00
36190;BME280;22232;50.914;13.858;2023-09-19T04:16:32;97176.16;;;16.23;100.00
36190;BME280;22232;50.914;13.858;2023-09-19T04:18:59;97174.41;;;16.08;100.00
36190;BME280;22232;50.914;13.858;2023-09-19T04:21:28;97186.41;;;16.16;100.00
36190;BME280;22232;50.914;13.858;2023-09-19T04:23:56;97191.00;;;16.15;100.00
36190;BME280;22232;50.914;13.858;2023-09-19T04:26:24;97185.91;;;16.14;100.00
36190;BME280;22232;50.914;13.858;2023-09-19T04:28:53;97183.22;;;16.14;100.00
36190;BME280;22232;50.914;13.858;2023-09-19T04:31:21;97188.31;;;16.15;100.00
36190;BME280;22232;50.914;13.858;2023-09-19T04:33:49;97207.16;;;16.15;100.00
36190;BME280;22232;50.914;13.858;2023-09-19T04:36:17;97208.22;;;16.19;100.00
36190;BME280;22232;50.914;13.858;2023-09-19T04:39:03;97207.38;;;16.19;100.00
36190;BME280;22232;50.914;13.858;2023-09-19T04:41:34;97220.91;;;16.14;100.00
36190;BME280;22232;50.914;13.858;2023-09-19T04:44:06;97219.56;;;16.11;100.00
36190;BME280;22232;50.914;13.858;2023-09-19T04:46:34;97225.50;;;16.08;100.00
36190;BME280;22232;50.914;13.858;2023-09-19T04:49:02;97226.09;;;16.00;100.00
36190;BME280;22232;50.914;13.858;2023-09-19T04:51:30;97225.25;;;16.04;100.00
36190;BME280;22232;50.914;13.858;2023-09-19T04:54:01;97227.09;;;16.09;100.00
36190;BME280;22232;50.914;13.858;2023-09-19T04:56:30;97238.41;;;16.06;100.00
36190;BME280;22232;50.914;13.858;2023-09-19T04:58:59;97242.44;;;16.09;100.00
36190;BME280;22232;50.914;13.858;2023-09-19T05:01:27;97246.53;;;16.01;100.00
36190;BME280;22232;50.914;13.858;2023-09-19T05:03:54;97252.19;;;15.99;100.00
36190;BME280;22232;50.914;13.858;2023-09-19T05:06:22;97246.25;;;16.02;100.00
36190;BME280;22232;50.914;13.858;2023-09-19T05:08:50;97250.53;;;16.03;100.00
36190;BME280;22232;50.914;13.858;2023-09-19T05:11:18;97251.38;;;16.04;100.00
36190;BME280;22232;50.914;13.858;2023-09-19T05:13:50;97258.31;;;16.10;100.00
36190;BME280;22232;50.914;13.858;2023-09-19T05:16:18;97255.34;;;16.06;100.00
36190;BME280;22232;50.914;13.858;2023-09-19T05:18:46;97255.13;;;16.03;100.00
36190;BME280;22232;50.914;13.858;2023-09-19T05:21:13;97258.91;;;16.02;100.00
36190;BME280;22232;50.914;13.858;2023-09-19T05:23:41;97264.00;;;16.03;100.00
36190;BME280;22232;50.914;13.858;2023-09-19T05:26:09;97269.63;;;16.07;100.00
36190;BME280;22232;50.914;13.858;2023-09-19T05:28:37;97261.81;;;16.11;100.00
36190;BME280;22232;50.914;13.858;2023-09-19T05:31:05;97269.34;;;16.09;100.00
36190;BME280;22232;50.914;13.858;2023-09-19T05:33:33;97273.91;;;16.13;100.00
36190;BME280;22232;50.914;13.858;2023-09-19T05:36:00;97272.56;;;16.11;100.00
36190;BME280;22232;50.914;13.858;2023-09-19T05:38:28;97282.22;;;16.12;100.00
36190;BME280;22232;50.914;13.858;2023-09-19T05:40:55;97283.56;;;16.14;100.00
36190;BME280;22232;50.914;13.858;2023-09-19T05:43:23;97286.22;;;16.19;100.00
36190;BME280;22232;50.914;13.858;2023-09-19T05:45:50;97292.91;;;16.22;100.00
36190;BME280;22232;50.914;13.858;2023-09-19T05:48:19;97282.72;;;16.19;100.00
36190;BME280;22232;50.914;13.858;2023-09-19T05:50:48;97289.97;;;16.23;100.00
36190;BME280;22232;50.914;13.858;2023-09-19T05:53:19;97285.91;;;16.26;100.00
36190;BME280;22232;50.914;13.858;2023-09-19T05:55:46;97295.25;;;16.34;100.00
36190;BME280;22232;50.914;13.858;2023-09-19T05:58:14;97294.69;;;16.42;100.00
36190;BME280;22232;50.914;13.858;2023-09-19T06:00:41;97303.22;;;16.49;100.00
36190;BME280;22232;50.914;13.858;2023-09-19T06:03:10;97295.34;;;16.58;100.00
36190;BME280;22232;50.914;13.858;2023-09-19T06:05:40;97302.03;;;16.65;100.00
36190;BME280;22232;50.914;13.858;2023-09-19T06:08:08;97299.53;;;16.74;100.00
36190;BME280;22232;50.914;13.858;2023-09-19T06:10:36;97297.41;;;16.71;100.00
36190;BME280;22232;50.914;13.858;2023-09-19T06:13:04;97294.41;;;16.78;100.00
36190;BME280;22232;50.914;13.858;2023-09-19T06:15:33;97299.75;;;16.83;100.00
36190;BME280;22232;50.914;13.858;2023-09-19T06:18:02;97300.16;;;16.95;100.00
36190;BME280;22232;50.914;13.858;2023-09-19T06:20:32;97303.38;;;16.97;100.00
36190;BME280;22232;50.914;13.858;2023-09-19T06:23:02;97300.13;;;17.00;100.00
36190;BME280;22232;50.914;13.858;2023-09-19T06:25:30;97306.50;;;17.09;100.00
36190;BME280;22232;50.914;13.858;2023-09-19T06:27:58;97310.53;;;17.12;100.00
36190;BME280;22232;50.914;13.858;2023-09-19T06:30:26;97312.38;;;17.16;100.00
36190;BME280;22232;50.914;13.858;2023-09-19T06:32:57;97317.09;;;17.30;100.00
36190;BME280;22232;50.914;13.858;2023-09-19T06:35:25;97315.72;;;17.32;100.00
36190;BME280;22232;50.914;13.858;2023-09-19T06:37:53;97316.69;;;17.41;100.00
36190;BME280;22232;50.914;13.858;2023-09-19T06:40:21;97321.44;;;17.50;100.00
36190;BME280;22232;50.914;13.858;2023-09-19T06:42:52;97320.22;;;17.61;100.00
36190;BME280;22232;50.914;13.858;2023-09-19T06:45:21;97330.59;;;17.78;100.00
36190;BME280;22232;50.914;13.858;2023-09-19T06:47:50;97333.16;;;17.88;100.00
36190;BME280;22232;50.914;13.858;2023-09-19T06:50:22;97343.16;;;18.06;100.00
36190;BME280;22232;50.914;13.858;2023-09-19T06:52:52;97352.00;;;18.50;100.00
36190;BME280;22232;50.914;13.858;2023-09-19T06:55:22;97360.72;;;18.98;100.00
36190;BME280;22232;50.914;13.858;2023-09-19T06:57:52;97362.72;;;19.39;100.00
36190;BME280;22232;50.914;13.858;2023-09-19T07:00:21;97371.06;;;19.98;100.00
36190;BME280;22232;50.914;13.858;2023-09-19T07:03:03;97369.28;;;20.44;100.00
36190;BME280;22232;50.914;13.858;2023-09-19T07:05:34;97368.88;;;20.64;100.00
36190;BME280;22232;50.914;13.858;2023-09-19T07:08:07;97375.22;;;20.46;100.00
36190;BME280;22232;50.914;13.858;2023-09-19T07:10:35;97377.97;;;20.68;100.00
36190;BME280;22232;50.914;13.858;2023-09-19T07:13:04;97383.44;;;20.99;100.00
36190;BME280;22232;50.914;13.858;2023-09-19T07:15:33;97378.28;;;20.89;100.00
36190;BME280;22232;50.914;13.858;2023-09-19T07:18:04;97385.84;;;20.78;100.00
36190;BME280;22232;50.914;13.858;2023-09-19T07:20:33;97397.03;;;20.63;100.00
36190;BME280;22232;50.914;13.858;2023-09-19T07:23:02;97392.69;;;20.39;100.00
36190;BME280;22232;50.914;13.858;2023-09-19T07:25:30;97400.00;;;20.39;100.00
36190;BME280;22232;50.914;13.858;2023-09-19T07:27:58;97405.47;;;19.98;100.00
36190;BME280;22232;50.914;13.858;2023-09-19T07:30:28;97401.75;;;19.80;100.00
36190;BME280;22232;50.914;13.858;2023-09-19T07:32:56;97399.91;;;19.61;100.00
36190;BME280;22232;50.914;13.858;2023-09-19T07:35:24;97410.47;;;19.30;100.00
36190;BME280;22232;50.914;13.858;2023-09-19T07:37:53;97411.06;;;18.94;100.00
36190;BME280;22232;50.914;13.858;2023-09-19T07:40:20;97414.72;;;18.85;100.00
36190;BME280;22232;50.914;13.858;2023-09-19T07:42:48;97420.25;;;18.74;100.00
36190;BME280;22232;50.914;13.858;2023-09-19T07:45:16;97425.59;;;18.61;100.00
36190;BME280;22232;50.914;13.858;2023-09-19T07:47:51;97425.00;;;18.64;100.00
36190;BME280;22232;50.914;13.858;2023-09-19T07:50:19;97434.25;;;18.57;100.00
36190;BME280;22232;50.914;13.858;2023-09-19T07:52:48;97432.44;;;18.53;100.00
36190;BME280;22232;50.914;13.858;2023-09-19T07:55:19;97430.97;;;18.61;100.00
36190;BME280;22232;50.914;13.858;2023-09-19T07:57:51;97435.22;;;18.67;100.00
36190;BME280;22232;50.914;13.858;2023-09-19T08:00:19;97438.91;;;18.76;100.00
36190;BME280;22232;50.914;13.858;2023-09-19T08:02:47;97439.41;;;18.97;100.00
36190;BME280;22232;50.914;13.858;2023-09-19T08:05:27;97435.28;;;19.18;100.00
36190;BME280;22232;50.914;13.858;2023-09-19T08:07:55;97438.94;;;19.74;100.00
36190;BME280;22232;50.914;13.858;2023-09-19T08:10:24;97435.84;;;20.72;100.00
36190;BME280;22232;50.914;13.858;2023-09-19T08:12:55;97433.81;;;21.59;100.00
36190;BME280;22232;50.914;13.858;2023-09-19T08:15:25;97430.13;;;22.35;100.00
36190;BME280;22232;50.914;13.858;2023-09-19T08:17:53;97430.16;;;22.78;98.59
36190;BME280;22232;50.914;13.858;2023-09-19T08:20:20;97431.59;;;23.28;93.09
36190;BME280;22232;50.914;13.858;2023-09-19T08:22:50;97431.97;;;23.82;87.80
36190;BME280;22232;50.914;13.858;2023-09-19T08:25:20;97430.03;;;24.21;84.65
36190;BME280;22232;50.914;13.858;2023-09-19T08:27:49;97427.38;;;24.12;80.34
36190;BME280;22232;50.914;13.858;2023-09-19T08:30:19;97432.34;;;24.10;83.76
36190;BME280;22232;50.914;13.858;2023-09-19T08:33:02;97435.56;;;23.74;79.53
36190;BME280;22232;50.914;13.858;2023-09-19T08:35:32;97432.69;;;23.62;83.31
36190;BME280;22232;50.914;13.858;2023-09-19T08:38:00;97439.72;;;23.63;83.05
36190;BME280;22232;50.914;13.858;2023-09-19T08:40:32;97440.66;;;23.67;81.79
36190;BME280;22232;50.914;13.858;2023-09-19T08:43:01;97443.13;;;23.25;80.10
36190;BME280;22232;50.914;13.858;2023-09-19T08:45:30;97435.75;;;23.34;84.64
36190;BME280;22232;50.914;13.858;2023-09-19T08:48:23;97450.50;;;23.24;78.51
36190;BME280;22232;50.914;13.858;2023-09-19T08:50:55;97443.84;;;23.69;78.89
36190;BME280;22232;50.914;13.858;2023-09-19T08:53:34;97446.06;;;23.84;78.34
36190;BME280;22232;50.914;13.858;2023-09-19T08:56:09;97451.06;;;24.20;79.20
36190;BME280;22232;50.914;13.858;2023-09-19T08:59:04;97460.47;;;24.82;77.21
36190;BME280;22232;50.914;13.858;2023-09-19T09:01:35;97456.78;;;25.41;nan
36190;BME280;22232;50.914;13.858;2023-09-19T09:04:08;97455.44;;;25.47;71.30
36190;BME280;22232;50.914;13.858;2023-09-19T09:06:42;97465.66;;;25.38;67.38
36190;BME280;22232;50.914;13.858;2023-09-19T09:09:12;97458.53;;;24.32;69.64
36190;BME280;22232;50.914;13.858;2023-09-19T09:11:40;97456.44;;;23.18;75.03
36190;BME280;22232;50.914;13.858;2023-09-19T09:14:08;97455.19;;;22.23;81.99
36190;BME280;22232;50.914;13.858;2023-09-19T09:16:36;97471.06;;;21.67;87.80
36190;BME280;22232;50.914;13.858;2023-09-19T09:19:04;97475.00;;;21.16;87.74
36190;BME280;22232;50.914;13.858;2023-09-19T09:21:32;97476.03;;;21.29;91.53
36190;BME280;22232;50.914;13.858;2023-09-19T09:24:28;97482.53;;;21.95;87.65
36190;BME280;22232;50.914;13.858;2023-09-19T09:26:57;97473.66;;;22.52;81.60
36190;BME280;22232;50.914;13.858;2023-09-19T09:32:23;97473.41;;;21.91;82.79
36190;BME280;22232;50.914;13.858;2023-09-19T09:37:19;97484.44;;;21.19;90.89
36190;BME280;22232;50.914;13.858;2023-09-19T09:39:57;97487.16;;;21.05;93.23
36190;BME280;22232;50.914;13.858;2023-09-19T09:42:36;97484.78;;;21.40;91.29
36190;BME280;22232;50.914;13.858;2023-09-19T09:47:47;97471.16;;;22.99;87.55
36190;BME280;22232;50.914;13.858;2023-09-19T09:50:46;97473.47;;;23.79;79.56
36190;BME280;22232;50.914;13.858;2023-09-19T09:53:28;97475.13;;;23.71;72.63
36190;BME280;22232;50.914;13.858;2023-09-19T09:56:02;97482.34;;;23.24;75.68
36190;BME280;22232;50.914;13.858;2023-09-19T09:58:35;97484.84;;;22.59;77.96
36190;BME280;22232;50.914;13.858;2023-09-19T10:01:04;97484.84;;;21.80;80.21
36190;BME280;22232;50.914;13.858;2023-09-19T10:03:43;97494.13;;;21.56;83.02
36190;BME280;22232;50.914;13.858;2023-09-19T10:06:16;97499.22;;;21.13;83.74
36190;BME280;22232;50.914;13.858;2023-09-19T10:09:07;97494.50;;;20.68;84.16
36190;BME280;22232;50.914;13.858;2023-09-19T10:11:47;97497.22;;;20.40;82.96
36190;BME280;22232;50.914;13.858;2023-09-19T10:14:30;97490.19;;;20.26;85.94
36190;BME280;22232;50.914;13.858;2023-09-19T10:17:00;97496.97;;;20.78;85.45
36190;BME280;22232;50.914;13.858;2023-09-19T10:19:42;97489.13;;;20.91;80.17
36190;BME280;22232;50.914;13.858;2023-09-19T10:22:14;97488.94;;;21.68;79.47
36190;BME280;22232;50.914;13.858;2023-09-19T10:24:50;97489.31;;;22.15;77.74
36190;BME280;22232;50.914;13.858;2023-09-19T10:27:30;97481.66;;;22.75;74.25
36190;BME280;22232;50.914;13.858;2023-09-19T10:30:07;97488.13;;;23.05;70.44
36190;BME280;22232;50.914;13.858;2023-09-19T10:32:39;97487.66;;;23.29;71.75
36190;BME280;22232;50.914;13.858;2023-09-19T10:35:11;97491.00;;;23.26;70.02
36190;BME280;22232;50.914;13.858;2023-09-19T10:37:41;97484.97;;;22.54;69.18
36190;BME280;22232;50.914;13.858;2023-09-19T10:40:12;97498.34;;;22.25;71.97
36190;BME280;22232;50.914;13.858;2023-09-19T10:42:46;97502.31;;;21.96;73.91
36190;BME280;22232;50.914;13.858;2023-09-19T10:45:17;97499.38;;;21.84;74.90
36190;BME280;22232;50.914;13.858;2023-09-19T10:47:47;97499.56;;;21.56;75.31
36190;BME280;22232;50.914;13.858;2023-09-19T10:50:21;97489.88;;;21.41;75.80
36190;BME280;22232;50.914;13.858;2023-09-19T10:52:50;97485.91;;;21.25;77.56
36190;BME280;22232;50.914;13.858;2023-09-19T10:55:27;97488.13;;;21.99;77.38
36190;BME280;22232;50.914;13.858;2023-09-19T10:57:56;97481.00;;;22.60;73.89
36190;BME280;22232;50.914;13.858;2023-09-19T11:00:57;97474.16;;;22.72;68.25
36190;BME280;22232;50.914;13.858;2023-09-19T11:03:30;97481.97;;;22.56;67.50
36190;BME280;22232;50.914;13.858;2023-09-19T11:06:05;97484.69;;;22.73;67.17
36190;BME280;22232;50.914;13.858;2023-09-19T11:09:06;97483.63;;;23.18;65.41
36190;BME280;22232;50.914;13.858;2023-09-19T11:11:45;97485.88;;;23.24;64.16
36190;BME280;22232;50.914;13.858;2023-09-19T11:30:37;97483.28;;;23.71;57.06
36190;BME280;22232;50.914;13.858;2023-09-19T11:36:13;97484.28;;;22.97;58.23
36190;BME280;22232;50.914;13.858;2023-09-19T11:46:33;97486.66;;;23.33;59.42
36190;BME280;22232;50.914;13.858;2023-09-19T11:49:09;97488.25;;;23.52;59.45
36190;BME280;22232;50.914;13.858;2023-09-19T11:51:46;97481.19;;;23.68;59.85
36190;BME280;22232;50.914;13.858;2023-09-19T11:54:18;97479.16;;;24.03;58.96
36190;BME280;22232;50.914;13.858;2023-09-19T11:56:50;97486.63;;;23.77;56.22
36190;BME280;22232;50.914;13.858;2023-09-19T11:59:26;97483.41;;;23.66;56.45
36190;BME280;22232;50.914;13.858;2023-09-19T12:02:05;97491.44;;;23.63;55.08
36190;BME280;22232;50.914;13.858;2023-09-19T12:04:38;97484.88;;;23.64;54.89
36190;BME280;22232;50.914;13.858;2023-09-19T12:07:11;97496.75;;;23.50;54.40
36190;BME280;22232;50.914;13.858;2023-09-19T12:09:45;97487.44;;;23.51;54.10
36190;BME280;22232;50.914;13.858;2023-09-19T12:12:27;97475.44;;;23.52;54.91
36190;BME280;22232;50.914;13.858;2023-09-19T12:14:56;97485.53;;;23.52;55.14
36190;BME280;22232;50.914;13.858;2023-09-19T12:17:37;97484.88;;;23.46;55.21
36190;BME280;22232;50.914;13.858;2023-09-19T12:20:06;97484.94;;;23.20;54.71
36190;BME280;22232;50.914;13.858;2023-09-19T12:22:45;97483.97;;;23.16;55.18
36190;BME280;22232;50.914;13.858;2023-09-19T12:25:14;97483.31;;;23.28;55.58
36190;BME280;22232;50.914;13.858;2023-09-19T12:27:48;97486.78;;;23.63;52.99
36190;BME280;22232;50.914;13.858;2023-09-19T12:30:27;97487.59;;;23.64;51.89
36190;BME280;22232;50.914;13.858;2023-09-19T12:32:55;97474.16;;;23.58;52.51
36190;BME280;22232;50.914;13.858;2023-09-19T12:35:31;97481.03;;;23.65;51.86
36190;BME280;22232;50.914;13.858;2023-09-19T12:38:02;97481.19;;;23.59;52.55
36190;BME280;22232;50.914;13.858;2023-09-19T12:40:32;97480.56;;;23.45;53.90
36190;BME280;22232;50.914;13.858;2023-09-19T12:43:01;97470.81;;;23.53;52.92
36190;BME280;22232;50.914;13.858;2023-09-19T12:45:32;97475.91;;;23.54;52.78
36190;BME280;22232;50.914;13.858;2023-09-19T12:48:25;97469.22;;;23.34;53.53
36190;BME280;22232;50.914;13.858;2023-09-19T12:51:05;97468.75;;;23.32;52.87
36190;BME280;22232;50.914;13.858;2023-09-19T12:53:38;97471.16;;;23.25;53.67
36190;BME280;22232;50.914;13.858;2023-09-19T12:56:15;97471.16;;;23.17;53.35
36190;BME280;22232;50.914;13.858;2023-09-19T12:58:53;97469.25;;;23.26;51.78
36190;BME280;22232;50.914;13.858;2023-09-19T13:01:26;97468.44;;;23.17;51.32
36190;BME280;22232;50.914;13.858;2023-09-19T13:06:52;97467.97;;;23.06;52.37
36190;BME280;22232;50.914;13.858;2023-09-19T13:09:22;97470.84;;;23.09;52.60
36190;BME280;22232;50.914;13.858;2023-09-19T13:11:50;97478.69;;;23.20;51.16
36190;BME280;22232;50.914;13.858;2023-09-19T13:14:27;97480.63;;;23.19;51.33
36190;BME280;22232;50.914;13.858;2023-09-19T13:22:39;97473.84;;;23.34;52.88
36190;BME280;22232;50.914;13.858;2023-09-19T13:25:08;97471.97;;;23.17;51.48
36190;BME280;22232;50.914;13.858;2023-09-19T13:27:42;97471.31;;;23.11;51.50
36190;BME280;22232;50.914;13.858;2023-09-19T13:30:12;97472.28;;;23.07;51.56
36190;BME280;22232;50.914;13.858;2023-09-19T13:32:40;97478.53;;;23.16;52.00
36190;BME280;22232;50.914;13.858;2023-09-19T13:35:11;97474.69;;;23.08;51.42
36190;BME280;22232;50.914;13.858;2023-09-19T13:37:40;97470.66;;;22.80;52.94
36190;BME280;22232;50.914;13.858;2023-09-19T13:40:10;97466.00;;;22.72;52.98
36190;BME280;22232;50.914;13.858;2023-09-19T13:42:38;97471.56;;;22.66;54.09
36190;BME280;22232;50.914;13.858;2023-09-19T13:45:06;97473.34;;;22.71;52.79
36190;BME280;22232;50.914;13.858;2023-09-19T13:47:40;97465.03;;;22.76;53.07
36190;BME280;22232;50.914;13.858;2023-09-19T13:50:08;97469.03;;;22.87;52.11
36190;BME280;22232;50.914;13.858;2023-09-19T13:52:36;97459.13;;;22.83;52.21
36190;BME280;22232;50.914;13.858;2023-09-19T13:55:06;97472.56;;;22.71;52.91
36190;BME280;22232;50.914;13.858;2023-09-19T13:57:34;97473.00;;;22.64;53.06
36190;BME280;22232;50.914;13.858;2023-09-19T14:00:02;97469.19;;;22.74;52.76
36190;BME280;22232;50.914;13.858;2023-09-19T14:02:38;97472.56;;;22.71;52.55
36190;BME280;22232;50.914;13.858;2023-09-19T14:05:07;97477.19;;;22.79;54.03